Terminal Aerodrome Forecast
Issued by NWS

Home | Current Version | Previous Version | Text Only | Print | Product List | Glossary On
Versions: 1 2 3 4 5 6 7 8 9 10 11 12
580
FTUS41 KAKQ 290521
TAFPHF
TAF
KPHF 290521Z 2906/3006 17006KT P6SM SCT250
     FM291200 21007KT P6SM SCT200
     FM291600 20011G18KT P6SM SCT060
     FM300200 20009KT P6SM SKC=

USA.gov is the U.S. government's official web portal to all federal, state and local government web resources and services.